Portada
METAR-TAF:

METAR-TAF

Aeroports :

Luang Prabang, Laos

latitud: 19-53N, longitud: 102-08E, altitud: 305 m

Observació

L'informe es va fer fa 30 minuts, a les 01:00 UTC
Vent calma
Temperatura 24°C
Humitat 89%
Pressió 1015 hPa
Visibilitat: 5000 m
Cel cobert a una alçada de 7000 ft
boirina

METAR: VLLB 010100Z 00000KT 5000 BR SCT0060 OVC070 24/22 Q1015 NOSIG

Hora: 08:30 (01:30 UTC)

Pronòstic

L'informe es va fer fa 2 hores i 30 minuts, a les 23:00 UTC
Pronòstic vàlid del 01 a les 00 UTC al 01 a les 24 UTC
Vent 4 kt del Est
Visibilitat 10 km o més
Núvols disperses a una alçada de 2000 ft
Cel ennuvolat a una alçada de 6000 ft

TAF: VLLB 312300Z 0100/0124 09004KT 9999 SCT020 BKN060

Observacions i pronòstics meteorològics de més de 4000 aeroports (METAR i TAF).

Les estacions disponibles són els punts grocs i vermells al mapa.

Posi el ratolí al punt desitjat per veure el nom de l'estació.

Feu clic per veure les observacions i els pronòstics meteorològics.

Per canviar el mapa: feu clic els botons verds amb una creu de color negre per apropar; al botó verd amb un guió per allunyar la imatge; o en les fletxes verdes per a mapes adjacents.


METAR-TAF: